Time;durP1;ratioP1;P1;durP2;ratioP2;P2;SDS_P1;SDS_P2;PMS_P1;PMS_P2;Temp;Humidity;BMP_temperature;BMP_pressure;BME280_temperature;BME280_humidity;BME280_pressure;Samples;Min_cycle;Max_cycle;Signal;HPM_P1;HPM_P2
2022/12/03 00:00:43;;;;;;;18.95;11.80;;;;;;;5.19;93.91;98172.50;4201004;28;20277;-81
2022/12/03 00:02:46;;;;;;;18.70;12.07;;;;;;;5.23;93.94;98179.19;4205455;28;20579;-81
2022/12/03 00:04:50;;;;;;;18.02;11.25;;;;;;;5.23;94.25;98181.78;4188653;28;20279;-82
2022/12/03 00:06:53;;;;;;;16.23;11.27;;;;;;;5.21;93.53;98173.25;4200389;28;20576;-81
2022/12/03 00:08:58;;;;;;;17.83;11.52;;;;;;;5.22;94.47;98180.09;4203277;28;20209;-81
2022/12/03 00:11:01;;;;;;;18.40;11.30;;;;;;;5.26;93.92;98179.06;4201438;28;20218;-80
2022/12/03 00:13:04;;;;;;;15.68;10.85;;;;;;;5.24;94.29;98173.09;4201920;28;20229;-81
2022/12/03 00:15:08;;;;;;;17.08;12.15;;;;;;;5.23;94.23;98178.34;4193533;28;20218;-81
2022/12/03 00:17:11;;;;;;;21.30;12.30;;;;;;;5.23;94.42;98174.03;4200919;28;20210;-81
2022/12/03 00:19:15;;;;;;;17.98;11.50;;;;;;;5.19;94.72;98175.06;4200367;28;20229;-81
2022/12/03 00:21:18;;;;;;;18.05;12.13;;;;;;;5.18;94.09;98180.31;4198421;28;20692;-81
2022/12/03 00:23:21;;;;;;;16.80;11.63;;;;;;;5.18;94.84;98172.56;4197759;28;20237;-81
2022/12/03 00:25:25;;;;;;;19.23;12.35;;;;;;;5.16;94.62;98177.78;4198294;28;20201;-80
2022/12/03 00:27:28;;;;;;;20.05;11.93;;;;;;;5.15;94.99;98175.28;4201196;28;20287;-81
2022/12/03 00:29:31;;;;;;;18.75;12.13;;;;;;;5.12;94.36;98185.75;4203182;28;20214;-81
2022/12/03 00:31:34;;;;;;;22.05;12.20;;;;;;;5.13;94.42;98177.94;4188116;28;20207;-81
2022/12/03 00:33:38;;;;;;;21.45;12.43;;;;;;;5.13;94.24;98182.28;4199770;28;20251;-81
2022/12/03 00:35:41;;;;;;;17.80;12.23;;;;;;;5.15;94.57;98180.44;4201736;28;20256;-81
2022/12/03 00:37:44;;;;;;;18.80;12.77;;;;;;;5.10;94.90;98181.56;4188141;28;20657;-81
2022/12/03 00:39:47;;;;;;;20.10;12.60;;;;;;;5.07;94.33;98176.56;4204082;28;20517;-82
2022/12/03 00:41:51;;;;;;;17.58;11.73;;;;;;;5.11;94.50;98175.50;4202528;28;20653;-81
2022/12/03 00:43:56;;;;;;;19.63;13.15;;;;;;;5.11;94.91;98175.50;4193143;28;20232;-81
2022/12/03 00:45:59;;;;;;;19.13;12.20;;;;;;;5.10;94.17;98190.16;4200527;28;20222;-81
2022/12/03 00:48:02;;;;;;;19.73;12.25;;;;;;;5.10;94.22;98176.38;4189622;28;20299;-81
2022/12/03 00:50:07;;;;;;;20.73;12.82;;;;;;;5.13;93.64;98185.69;4204235;28;20210;-81
2022/12/03 00:52:10;;;;;;;17.75;12.45;;;;;;;5.15;94.49;98191.63;4202911;28;20210;-81
2022/12/03 00:54:13;;;;;;;19.98;11.77;;;;;;;5.13;94.18;98190.84;4196107;28;20203;-82
2022/12/03 00:56:16;;;;;;;17.63;12.30;;;;;;;5.17;93.45;98189.81;4202546;28;20299;-81
2022/12/03 00:58:20;;;;;;;16.10;11.27;;;;;;;5.19;93.42;98192.34;4183275;28;20206;-81
2022/12/03 01:00:24;;;;;;;20.48;12.70;;;;;;;5.21;93.80;98191.34;4198185;28;20296;-82
2022/12/03 01:02:27;;;;;;;21.73;13.02;;;;;;;5.18;92.86;98185.47;4187608;28;20232;-81
2022/12/03 01:04:31;;;;;;;19.85;12.35;;;;;;;5.21;93.41;98198.25;4205411;28;20820;-81
2022/12/03 01:06:34;;;;;;;18.98;12.65;;;;;;;5.28;93.52;98195.34;4202363;28;20226;-81
2022/12/03 01:08:37;;;;;;;18.25;12.45;;;;;;;5.34;92.94;98192.47;4199076;28;20289;-81
2022/12/03 01:10:40;;;;;;;20.13;13.85;;;;;;;5.35;93.46;98196.75;4184219;28;20303;-81
2022/12/03 01:12:43;;;;;;;21.25;12.80;;;;;;;5.36;93.01;98194.97;4200769;28;20237;-81
2022/12/03 01:14:48;;;;;;;20.25;13.10;;;;;;;5.40;92.88;98201.69;4186754;28;20819;-81
2022/12/03 01:16:51;;;;;;;18.75;12.43;;;;;;;5.43;92.81;98202.38;4203301;28;20214;-81
2022/12/03 01:18:54;;;;;;;23.15;13.65;;;;;;;5.41;92.39;98199.03;4206981;28;20206;-82
2022/12/03 01:20:57;;;;;;;19.95;13.20;;;;;;;5.44;91.89;98200.63;4203945;28;20197;-81
2022/12/03 01:23:00;;;;;;;20.75;13.05;;;;;;;5.33;92.20;98195.94;4191306;28;20255;-80
2022/12/03 01:25:03;;;;;;;19.45;12.20;;;;;;;5.36;92.21;98194.97;4196042;28;20244;-81
2022/12/03 01:27:06;;;;;;;21.58;12.93;;;;;;;5.38;92.25;98199.19;4208211;28;20228;-81
2022/12/03 01:29:09;;;;;;;22.75;13.90;;;;;;;5.35;92.71;98196.75;4206484;28;20221;-81
2022/12/03 01:33:35;;;;;;;24.48;13.55;;;;;;;5.38;92.19;98208.66;4200857;28;20586;-81
2022/12/03 01:35:38;;;;;;;27.58;14.70;;;;;;;5.33;92.57;98205.47;4196711;28;20693;-82
2022/12/03 01:37:41;;;;;;;23.70;13.40;;;;;;;5.36;92.54;98206.16;4201228;28;20202;-81
2022/12/03 01:39:44;;;;;;;23.15;13.55;;;;;;;5.42;92.45;98202.44;4198525;28;20638;-81
2022/12/03 01:41:48;;;;;;;23.23;14.18;;;;;;;5.44;92.82;98198.91;4185979;28;20222;-81
2022/12/03 01:43:52;;;;;;;22.48;13.68;;;;;;;5.45;92.31;98191.97;4192159;28;20195;-81
2022/12/03 01:45:56;;;;;;;22.88;13.63;;;;;;;5.45;92.60;98197.13;4185614;28;20206;-81
2022/12/03 01:48:00;;;;;;;23.55;13.65;;;;;;;5.45;93.21;98195.38;4195666;28;20207;-81
2022/12/03 01:50:06;;;;;;;25.00;14.55;;;;;;;5.44;92.94;98185.97;4205442;28;20248;-80
2022/12/03 01:52:11;;;;;;;21.27;14.38;;;;;;;5.50;93.28;98203.75;4191985;28;20768;-81
2022/12/03 01:54:17;;;;;;;22.55;13.57;;;;;;;5.48;92.40;98197.00;4185631;28;20205;-82
2022/12/03 01:56:20;;;;;;;19.92;12.80;;;;;;;5.49;92.46;98198.66;4189451;28;20205;-81
2022/12/03 01:58:27;;;;;;;23.80;13.82;;;;;;;5.55;92.68;98188.03;4200331;28;20239;-80
2022/12/03 02:00:30;;;;;;;25.45;13.85;;;;;;;5.48;92.43;98197.00;4206691;28;20211;-81
2022/12/03 02:02:33;;;;;;;24.48;14.18;;;;;;;5.41;91.94;98199.03;4200841;28;20218;-81
2022/12/03 02:04:38;;;;;;;23.40;14.27;;;;;;;5.42;93.01;98194.69;4203432;28;20650;-81
2022/12/03 02:06:41;;;;;;;23.15;14.50;;;;;;;5.42;92.66;98199.88;4187606;28;20224;-81
2022/12/03 02:08:45;;;;;;;24.63;14.23;;;;;;;5.39;92.30;98195.66;4204435;28;20651;-81
2022/12/03 02:10:48;;;;;;;26.08;14.13;;;;;;;5.42;93.01;98200.69;4193167;28;20204;-81
2022/12/03 02:12:54;;;;;;;22.55;13.70;;;;;;;5.41;92.93;98187.84;4196631;28;20207;-81
2022/12/03 02:14:57;;;;;;;25.33;14.45;;;;;;;5.39;92.44;98203.41;4191993;28;20316;-81
2022/12/03 02:17:08;;;;;;;23.52;14.85;;;;;;;5.37;93.35;98194.91;4197894;28;20656;-81
2022/12/03 02:19:18;;;;;;;22.65;13.38;;;;;;;5.36;93.05;98195.81;4197587;28;20263;-81
2022/12/03 02:21:27;;;;;;;28.52;16.17;;;;;;;5.35;92.99;98199.31;4198012;28;20837;-81
2022/12/03 02:23:35;;;;;;;41.47;21.48;;;;;;;5.39;93.41;98200.84;4211022;28;20232;-81
2022/12/03 02:25:39;;;;;;;72.57;31.85;;;;;;;5.41;93.04;98196.47;4209815;28;20235;-81
2022/12/03 02:27:43;;;;;;;28.05;15.75;;;;;;;5.41;92.86;98193.88;4204343;28;20212;-81
2022/12/03 02:29:46;;;;;;;27.70;14.90;;;;;;;5.33;92.14;98195.94;4203737;28;20214;-81
2022/12/03 02:31:49;;;;;;;33.88;19.63;;;;;;;5.33;92.73;98195.94;4193481;28;20578;-81
2022/12/03 02:33:53;;;;;;;44.03;25.42;;;;;;;5.38;93.14;98194.00;4206479;28;20283;-80
2022/12/03 02:35:56;;;;;;;31.77;20.73;;;;;;;5.39;93.03;98192.25;4200820;28;20207;-82
2022/12/03 02:38:12;;;;;;;30.00;18.27;;;;;;;5.41;93.13;98195.59;4197910;28;20202;-81
2022/12/03 02:40:18;;;;;;;30.70;15.85;;;;;;;5.43;92.83;98197.22;4196238;28;20841;-81
2022/12/03 02:42:34;;;;;;;26.65;14.90;;;;;;;5.44;92.95;98191.13;4186468;28;20287;-81
2022/12/03 02:44:37;;;;;;;24.30;14.50;;;;;;;5.44;92.74;98183.38;4210905;28;20602;-82
2022/12/03 02:46:40;;;;;;;27.02;15.35;;;;;;;5.43;93.03;98188.63;4209837;28;20205;-81
2022/12/03 02:48:43;;;;;;;23.48;14.90;;;;;;;5.41;92.74;98186.13;4201895;28;20217;-82
2022/12/03 02:50:50;;;;;;;25.67;15.40;;;;;;;5.42;92.80;98182.59;4202603;28;20261;-81
2022/12/03 02:52:54;;;;;;;26.50;15.00;;;;;;;5.45;92.98;98187.63;4185601;28;20206;-81
2022/12/03 02:54:57;;;;;;;30.48;16.33;;;;;;;5.42;92.91;98177.44;4210057;28;20213;-81
2022/12/03 02:57:01;;;;;;;28.67;15.38;;;;;;;5.39;93.37;98187.91;4206614;28;20219;-81
2022/12/03 02:59:05;;;;;;;31.10;16.02;;;;;;;5.35;93.03;98191.56;4190855;28;20206;-81
2022/12/03 03:01:09;;;;;;;31.77;16.38;;;;;;;5.38;93.58;98194.00;4194909;28;20300;-82
2022/12/03 03:03:12;;;;;;;33.45;16.48;;;;;;;5.40;92.97;98193.94;4215855;28;20232;-81
2022/12/03 03:05:16;;;;;;;27.90;15.52;;;;;;;5.41;93.40;98199.03;4195255;28;20316;-81
2022/12/03 03:07:19;;;;;;;31.15;16.17;;;;;;;5.41;93.24;98198.19;4195221;28;20210;-82
2022/12/03 03:09:22;;;;;;;29.92;15.90;;;;;;;5.44;93.31;98198.03;4201585;28;20532;-81
2022/12/03 03:11:25;;;;;;;30.42;17.17;;;;;;;5.40;92.97;98192.19;4204569;28;20613;-82
2022/12/03 03:13:29;;;;;;;27.73;15.63;;;;;;;5.41;93.41;98198.19;4205762;28;20205;-82
2022/12/03 03:15:35;;;;;;;29.05;16.08;;;;;;;5.42;93.29;98198.09;4204271;28;20613;-81
2022/12/03 03:17:39;;;;;;;27.58;17.67;;;;;;;5.44;92.99;98198.91;4196968;28;20208;-81
2022/12/03 03:19:43;;;;;;;30.13;16.65;;;;;;;5.48;93.34;98205.59;4201630;28;20208;-81
2022/12/03 03:21:46;;;;;;;29.38;16.60;;;;;;;5.47;93.14;98203.91;4197289;28;20202;-81
2022/12/03 03:23:49;;;;;;;36.90;17.33;;;;;;;5.46;92.99;98202.25;4204490;28;20253;-81
2022/12/03 03:25:57;;;;;;;32.95;17.02;;;;;;;5.46;92.80;98202.25;4199161;28;20211;-82
2022/12/03 03:28:00;;;;;;;29.80;15.80;;;;;;;5.48;92.77;98199.59;4203319;28;20200;-82
2022/12/03 03:30:04;;;;;;;32.78;19.55;;;;;;;5.48;92.85;98204.75;4201307;28;20651;-81
2022/12/03 03:32:08;;;;;;;27.65;15.95;;;;;;;5.45;92.75;98195.38;4201001;28;20209;-81
2022/12/03 03:34:12;;;;;;;28.70;16.00;;;;;;;5.40;92.35;98188.78;4202967;28;20218;-82
2022/12/03 03:36:16;;;;;;;32.42;16.67;;;;;;;5.42;92.61;98189.53;4201793;28;20256;-81
2022/12/03 03:38:20;;;;;;;28.30;15.00;;;;;;;5.39;93.39;98193.09;4200555;28;20272;-81
2022/12/03 03:40:23;;;;;;;28.65;16.60;;;;;;;5.40;93.20;98192.19;4192174;28;20708;-81
2022/12/03 03:42:26;;;;;;;30.90;16.15;;;;;;;5.41;93.27;98188.69;4202347;28;20221;-81
2022/12/03 03:44:29;;;;;;;31.60;17.70;;;;;;;5.45;93.43;98185.03;4196186;28;20313;-81
2022/12/03 03:46:33;;;;;;;33.58;18.75;;;;;;;5.48;93.41;98176.31;4213177;28;20240;-81
2022/12/03 03:48:37;;;;;;;35.88;18.00;;;;;;;5.50;93.68;98180.47;4184264;28;20736;-81
2022/12/03 03:50:41;;;;;;;34.20;17.75;;;;;;;5.47;93.37;98183.22;4199038;28;20208;-81
2022/12/03 03:52:45;;;;;;;33.05;17.15;;;;;;;5.49;93.35;98186.59;4186810;28;20198;-81
2022/12/03 03:54:48;;;;;;;30.38;17.00;;;;;;;5.47;92.93;98183.22;4200290;28;20294;-81
2022/12/03 03:56:51;;;;;;;34.65;17.65;;;;;;;5.44;92.96;98188.56;4192197;28;20210;-81
2022/12/03 03:58:55;;;;;;;32.70;17.00;;;;;;;5.50;93.30;98192.59;4206150;28;20750;-81
2022/12/03 04:00:58;;;;;;;32.35;16.42;;;;;;;5.46;92.86;98184.13;4189164;28;20256;-81
2022/12/03 04:03:01;;;;;;;29.80;17.63;;;;;;;5.41;93.08;98180.09;4208437;28;20244;-81
2022/12/03 04:05:06;;;;;;;33.63;16.88;;;;;;;5.42;93.39;98177.44;4203039;28;20279;-81
2022/12/03 04:07:09;;;;;;;33.90;17.63;;;;;;;5.43;93.14;98176.53;4186175;28;20234;-81
2022/12/03 04:09:12;;;;;;;33.17;17.05;;;;;;;5.43;93.11;98170.53;4200926;28;20198;-82
2022/12/03 04:13:35;;;;;;;32.70;17.17;;;;;;;5.50;93.38;98166.72;4189913;28;20305;-81
2022/12/03 04:15:39;;;;;;;35.92;16.92;;;;;;;5.54;93.43;98166.50;4187239;28;20202;-81
2022/12/03 04:17:42;;;;;;;30.88;16.55;;;;;;;5.58;93.54;98168.03;4193147;28;20198;-82
2022/12/03 04:19:45;;;;;;;30.13;16.15;;;;;;;5.55;92.82;98169.91;4202599;28;20205;-81
2022/12/03 04:24:10;;;;;;;34.42;17.83;;;;;;;5.56;93.34;98171.59;4165946;28;20234;-81
2022/12/03 04:28:48;;;;;;;35.97;17.65;;;;;;;5.54;93.24;98169.09;4183372;28;20715;-81
2022/12/03 04:30:51;;;;;;;35.63;17.48;;;;;;;5.46;92.88;98168.63;4197626;28;20272;-81
2022/12/03 04:37:37;;;;;;;37.28;18.10;;;;;;;5.41;93.50;98157.66;4201718;28;20239;-81
2022/12/03 04:39:40;;;;;;;34.47;18.00;;;;;;;5.42;93.64;98159.31;4186713;28;20201;-81
2022/12/03 04:41:43;;;;;;;37.53;18.48;;;;;;;5.35;93.45;98157.97;4200127;28;20247;-81
2022/12/03 04:46:02;;;;;;;39.28;18.23;;;;;;;5.36;94.15;98159.59;4184158;28;20214;-81
2022/12/03 04:48:06;;;;;;;40.13;18.67;;;;;;;5.37;93.81;98161.31;4197557;28;20227;-81
2022/12/03 04:50:10;;;;;;;32.38;17.17;;;;;;;5.38;93.43;98160.41;4192436;28;20216;-81
2022/12/03 04:52:14;;;;;;;43.22;21.00;;;;;;;5.38;94.03;98160.41;4210632;28;20229;-81
2022/12/03 04:54:18;;;;;;;37.40;18.88;;;;;;;5.44;94.17;98167.88;4188754;28;20260;-81
2022/12/03 04:56:21;;;;;;;37.25;18.77;;;;;;;5.44;93.71;98164.44;4201050;28;20251;-81
2022/12/03 04:58:24;;;;;;;36.85;17.40;;;;;;;5.44;93.46;98165.28;4187070;28;20197;-81
2022/12/03 05:00:28;;;;;;;34.67;18.10;;;;;;;5.46;93.12;98163.44;4202194;28;20220;-81
2022/12/03 05:02:31;;;;;;;41.13;18.60;;;;;;;5.46;93.33;98163.44;4197244;28;20290;-81
2022/12/03 05:04:34;;;;;;;34.60;17.70;;;;;;;5.51;93.64;98163.25;4188626;28;20252;-81
2022/12/03 05:06:38;;;;;;;35.55;17.92;;;;;;;5.54;93.38;98166.50;4190748;28;20218;-81
2022/12/03 05:08:41;;;;;;;33.67;17.58;;;;;;;5.57;93.87;98161.19;4201295;28;20206;-82
2022/12/03 05:10:45;;;;;;;36.65;17.63;;;;;;;5.60;93.98;98162.81;4200319;28;20193;-81
2022/12/03 05:12:49;;;;;;;36.03;17.80;;;;;;;5.59;93.55;98155.94;4205848;28;20245;-82
2022/12/03 05:14:51;;;;;;;37.50;18.27;;;;;;;5.61;92.97;98158.38;4200660;28;20212;-81
2022/12/03 05:16:55;;;;;;;38.60;17.77;;;;;;;5.63;93.33;98160.91;4201785;28;20205;-81
2022/12/03 05:18:58;;;;;;;37.00;19.50;;;;;;;5.61;92.81;98160.16;4187397;28;20214;-81
2022/12/03 05:21:00;;;;;;;36.22;18.20;;;;;;;5.55;92.89;98164.75;4189266;28;20206;-81
2022/12/03 05:23:03;;;;;;;38.50;19.83;;;;;;;5.52;93.01;98159.72;4191432;28;20599;-81
2022/12/03 05:25:07;;;;;;;40.40;18.88;;;;;;;5.54;93.21;98158.75;4200987;28;20227;-82
2022/12/03 05:27:11;;;;;;;37.33;18.15;;;;;;;5.58;93.53;98157.69;4204369;28;20670;-81
2022/12/03 05:29:14;;;;;;;38.97;19.40;;;;;;;5.59;93.36;98159.34;4184550;28;20281;-81
2022/12/03 05:31:17;;;;;;;40.42;19.85;;;;;;;5.60;93.25;98168.81;4185916;28;20260;-82
2022/12/03 05:33:20;;;;;;;37.40;19.50;;;;;;;5.65;93.54;98165.09;4188845;28;20247;-81
2022/12/03 05:35:23;;;;;;;39.03;19.20;;;;;;;5.67;93.21;98160.69;4201040;28;20233;-82
2022/12/03 05:37:27;;;;;;;41.17;19.80;;;;;;;5.62;93.30;98165.25;4200083;28;20198;-81
2022/12/03 05:39:30;;;;;;;38.75;18.13;;;;;;;5.59;93.05;98154.19;4188681;28;20202;-82
2022/12/03 05:43:55;;;;;;;40.72;18.65;;;;;;;5.55;93.09;98151.81;4195566;28;20611;-82
2022/12/03 05:45:58;;;;;;;36.38;18.35;;;;;;;5.53;93.29;98151.88;4196070;28;20256;-81
2022/12/03 05:48:01;;;;;;;38.85;18.73;;;;;;;5.55;93.77;98147.50;4185843;28;20198;-81
2022/12/03 05:50:06;;;;;;;43.88;19.42;;;;;;;5.58;93.19;98149.94;4198722;28;20707;-81
2022/12/03 05:52:09;;;;;;;42.75;19.95;;;;;;;5.56;93.78;98154.34;4193246;28;20276;-81
2022/12/03 05:54:12;;;;;;;40.63;19.08;;;;;;;5.54;93.32;98148.41;4187255;28;20712;-82
2022/12/03 05:56:15;;;;;;;41.60;19.10;;;;;;;5.51;93.78;98135.63;4202459;28;20204;-81
2022/12/03 05:58:18;;;;;;;41.88;19.77;;;;;;;5.50;93.79;98139.09;4204476;28;20235;-82
2022/12/03 06:00:24;;;;;;;46.67;20.17;;;;;;;5.44;93.84;98131.66;4201717;28;20597;-82
2022/12/03 06:02:27;;;;;;;41.55;20.80;;;;;;;5.35;93.89;98131.25;4182041;28;20205;-81
2022/12/03 06:04:30;;;;;;;44.08;21.40;;;;;;;5.32;94.80;98131.38;4202953;28;20226;-82
2022/12/03 06:06:33;;;;;;;41.55;20.35;;;;;;;5.18;94.63;98119.09;4186047;28;20210;-81
2022/12/03 06:08:36;;;;;;;39.58;19.92;;;;;;;5.17;94.97;98114.00;4187950;28;20212;-81
2022/12/03 06:10:39;;;;;;;37.28;19.10;;;;;;;5.16;95.42;98113.19;4198082;28;20201;-81
2022/12/03 06:12:44;;;;;;;39.60;20.27;;;;;;;5.08;95.87;98126.53;4201315;28;20232;-81
2022/12/03 06:14:48;;;;;;;38.25;18.85;;;;;;;5.09;95.71;98133.38;4204675;28;20209;-81
2022/12/03 06:16:53;;;;;;;45.03;19.48;;;;;;;5.08;95.62;98144.63;4198935;28;20206;-81
2022/12/03 06:18:56;;;;;;;37.92;18.48;;;;;;;5.07;96.25;98146.38;4181128;28;20301;-81
2022/12/03 06:20:59;;;;;;;47.63;20.48;;;;;;;5.04;95.58;98143.94;4195704;28;20263;-81
2022/12/03 06:23:02;;;;;;;41.42;21.30;;;;;;;5.05;95.59;98142.16;4189352;28;20292;-82
2022/12/03 06:25:06;;;;;;;40.55;19.65;;;;;;;5.03;96.87;98146.59;4188533;28;20226;-81
2022/12/03 06:27:09;;;;;;;37.05;17.30;;;;;;;4.90;96.64;98145.44;4185909;28;20204;-81
2022/12/03 06:29:12;;;;;;;35.08;18.05;;;;;;;4.89;97.17;98138.63;4186657;28;20202;-81
2022/12/03 06:31:15;;;;;;;42.67;18.17;;;;;;;4.83;96.93;98154.41;4201625;28;20206;-81
2022/12/03 06:33:19;;;;;;;44.03;21.00;;;;;;;4.79;97.33;98158.03;4183923;28;20221;-81
2022/12/03 06:35:22;;;;;;;43.00;19.75;;;;;;;4.83;98.26;98150.06;4181401;28;20267;-82
2022/12/03 06:37:25;;;;;;;40.13;20.30;;;;;;;4.86;98.24;98157.69;4197894;28;20670;-81
2022/12/03 06:39:29;;;;;;;40.50;18.73;;;;;;;4.87;98.04;98155.91;4196534;28;20202;-81
2022/12/03 06:41:32;;;;;;;45.47;19.88;;;;;;;4.87;97.50;98155.91;4203522;28;20205;-81
2022/12/03 06:43:35;;;;;;;38.88;18.10;;;;;;;4.88;97.19;98160.19;4199458;28;20237;-81
2022/12/03 06:45:38;;;;;;;37.78;19.08;;;;;;;4.88;97.82;98162.78;4197280;28;20692;-81
2022/12/03 06:47:48;;;;;;;40.47;20.55;;;;;;;4.92;96.73;98159.16;4201243;28;20590;-81
2022/12/03 06:49:52;;;;;;;40.72;19.23;;;;;;;4.98;97.59;98172.63;4196637;28;20231;-81
2022/12/03 06:51:55;;;;;;;40.40;19.75;;;;;;;4.98;97.26;98172.63;4197790;28;20210;-81
2022/12/03 06:53:58;;;;;;;42.45;20.90;;;;;;;5.02;97.09;98168.16;4190138;28;20280;-81
2022/12/03 06:56:02;;;;;;;39.10;19.27;;;;;;;5.08;96.20;98175.63;4201198;28;20728;-81
2022/12/03 06:58:05;;;;;;;36.17;18.80;;;;;;;5.09;95.82;98183.31;4203257;28;20266;-82
2022/12/03 07:00:10;;;;;;;36.10;18.27;;;;;;;5.14;95.86;98184.78;4202860;28;20304;-81
2022/12/03 07:02:14;;;;;;;47.28;24.10;;;;;;;5.16;96.24;98182.97;4187685;28;20297;-81
2022/12/03 07:04:17;;;;;;;39.60;20.33;;;;;;;5.18;95.55;98181.13;4199220;28;20236;-82
2022/12/03 07:06:21;;;;;;;39.65;20.17;;;;;;;5.22;95.68;98180.09;4183383;28;20225;-81
2022/12/03 07:08:24;;;;;;;37.97;20.83;;;;;;;5.26;95.41;98184.22;4204052;28;20213;-81
2022/12/03 07:10:27;;;;;;;38.05;18.95;;;;;;;5.28;95.58;98191.91;4202922;28;20198;-81
2022/12/03 07:12:31;;;;;;;43.65;20.52;;;;;;;5.33;95.73;98188.19;4190194;28;20294;-81
2022/12/03 07:14:34;;;;;;;38.65;21.85;;;;;;;5.36;94.50;98184.63;4202390;28;20235;-81
2022/12/03 07:16:38;;;;;;;36.83;19.85;;;;;;;5.36;94.66;98192.41;4200197;28;20217;-81
2022/12/03 07:18:41;;;;;;;41.55;21.25;;;;;;;5.33;94.77;98189.94;4203557;28;20206;-81
2022/12/03 07:20:44;;;;;;;41.20;21.90;;;;;;;5.33;94.93;98189.94;4205888;28;20225;-81
2022/12/03 07:22:48;;;;;;;37.88;19.63;;;;;;;5.34;94.84;98196.81;4192199;28;20288;-82
2022/12/03 07:24:51;;;;;;;43.28;21.95;;;;;;;5.35;95.02;98193.28;4193313;28;20208;-81
2022/12/03 07:26:55;;;;;;;39.35;22.05;;;;;;;5.34;94.55;98187.28;4207769;28;20208;-81
2022/12/03 07:28:58;;;;;;;41.33;21.45;;;;;;;5.33;94.57;98180.44;4203261;28;20242;-81
2022/12/03 07:31:04;;;;;;;38.33;20.10;;;;;;;5.36;94.37;98169.94;4185103;28;20206;-82
2022/12/03 07:33:07;;;;;;;42.50;22.02;;;;;;;5.38;94.75;98168.16;4208829;28;20208;-82
2022/12/03 07:35:11;;;;;;;36.95;18.55;;;;;;;5.37;94.39;98169.06;4197259;28;20945;-82
2022/12/03 07:37:16;;;;;;;39.53;21.90;;;;;;;5.29;94.58;98153.06;4199868;28;20271;-81
2022/12/03 07:39:26;;;;;;;44.70;21.52;;;;;;;5.28;94.51;98164.31;4189760;28;20203;-81
2022/12/03 07:41:29;;;;;;;40.13;21.15;;;;;;;5.30;93.80;98164.25;4190281;28;20666;-81
2022/12/03 07:43:32;;;;;;;38.22;19.83;;;;;;;5.26;94.51;98153.22;4197790;28;20206;-82
2022/12/03 07:45:35;;;;;;;38.65;20.85;;;;;;;5.31;94.50;98151.25;4188724;28;20234;-82
2022/12/03 07:47:54;;;;;;;39.28;19.42;;;;;;;5.30;94.14;98149.56;4180931;28;20275;-81
2022/12/03 07:49:57;;;;;;;40.15;22.63;;;;;;;5.32;94.06;98152.94;4211210;28;20718;-80
2022/12/03 07:52:00;;;;;;;38.70;20.55;;;;;;;5.32;93.57;98150.34;4205178;28;20730;-81
2022/12/03 07:54:03;;;;;;;41.42;21.75;;;;;;;5.28;93.80;98146.22;4202058;28;20210;-81
2022/12/03 07:56:08;;;;;;;43.35;23.38;;;;;;;5.33;93.85;98151.16;4189295;28;20617;-81
2022/12/03 07:58:11;;;;;;;42.70;23.65;;;;;;;5.34;93.48;98147.69;4193012;28;20344;-81
2022/12/03 08:00:15;;;;;;;39.42;21.30;;;;;;;5.29;93.05;98153.06;4183573;28;20812;-81
2022/12/03 08:02:18;;;;;;;41.72;23.52;;;;;;;5.31;93.56;98153.00;4202886;28;20236;-83
2022/12/03 08:04:23;;;;;;;36.50;19.50;;;;;;;5.32;93.51;98163.28;4200822;28;20221;-81
2022/12/03 08:06:26;;;;;;;39.80;22.35;;;;;;;5.35;93.29;98159.69;4206415;28;20763;-81
2022/12/03 08:08:30;;;;;;;37.83;20.90;;;;;;;5.36;93.64;98166.53;4201555;28;20202;-81
2022/12/03 08:10:33;;;;;;;35.78;19.10;;;;;;;5.34;92.76;98170.97;4190530;28;20205;-81
2022/12/03 08:12:41;;;;;;;39.45;20.25;;;;;;;5.30;93.76;98167.66;4196148;28;20189;-81
2022/12/03 08:14:44;;;;;;;34.45;18.35;;;;;;;5.29;93.10;98166.00;4188095;28;20205;-81
2022/12/03 08:16:48;;;;;;;33.65;19.20;;;;;;;5.31;92.65;98171.09;4201987;28;20259;-81
2022/12/03 08:18:51;;;;;;;32.80;18.60;;;;;;;5.33;93.04;98164.09;4206177;28;20226;-81
2022/12/03 08:20:54;;;;;;;33.70;19.60;;;;;;;5.32;92.39;98168.44;4189043;28;20213;-81
2022/12/03 08:22:57;;;;;;;33.22;18.50;;;;;;;5.35;92.70;98168.28;4198868;28;20259;-80
2022/12/03 08:25:01;;;;;;;32.20;18.17;;;;;;;5.32;92.46;98173.63;4202903;28;20598;-81
2022/12/03 08:27:06;;;;;;;32.25;18.15;;;;;;;5.33;92.70;98175.25;4202320;28;20229;-81
2022/12/03 08:29:11;;;;;;;34.35;19.13;;;;;;;5.37;92.78;98168.22;4203664;28;20245;-81
2022/12/03 08:31:19;;;;;;;32.40;17.48;;;;;;;5.39;92.59;98168.97;4197930;28;20299;-81
2022/12/03 08:33:27;;;;;;;32.53;17.63;;;;;;;5.39;91.89;98162.06;4199524;28;20227;-81
2022/12/03 08:35:30;;;;;;;32.90;18.55;;;;;;;5.42;91.45;98161.09;4200338;28;20208;-81
2022/12/03 08:37:35;;;;;;;32.15;17.83;;;;;;;5.42;91.53;98169.66;4195114;28;21946;-81
2022/12/03 08:39:43;;;;;;;30.63;16.17;;;;;;;5.46;91.31;98167.75;4198561;28;20270;-82
2022/12/03 08:44:24;;;;;;;32.40;17.45;;;;;;;5.45;91.11;98174.69;4200783;28;20209;-81
2022/12/03 08:46:27;;;;;;;32.28;16.38;;;;;;;5.47;91.14;98175.44;4190430;28;20235;-81
2022/12/03 08:48:35;;;;;;;29.13;15.55;;;;;;;5.50;91.26;98180.47;4205667;28;20252;-81
2022/12/03 08:50:40;;;;;;;32.22;17.00;;;;;;;5.51;91.12;98171.81;4178125;28;20198;-81
2022/12/03 08:52:43;;;;;;;30.58;16.92;;;;;;;5.54;90.42;98179.44;4203703;28;20207;-81
2022/12/03 08:54:51;;;;;;;30.55;16.65;;;;;;;5.47;89.56;98177.22;4206380;28;20598;-81
2022/12/03 08:56:54;;;;;;;33.63;18.15;;;;;;;5.47;90.41;98174.63;4200390;28;20231;-81
2022/12/03 08:58:59;;;;;;;48.47;24.23;;;;;;;5.48;90.37;98174.56;4189220;28;20218;-82
2022/12/03 09:01:17;;;;;;;32.03;18.35;;;;;;;5.49;89.46;98181.41;4198005;28;20209;-81
2022/12/03 09:03:21;;;;;;;29.90;17.73;;;;;;;5.42;89.46;98168.84;4202076;28;20239;-81
2022/12/03 09:05:27;;;;;;;28.17;16.02;;;;;;;5.32;89.03;98173.63;4196156;28;20223;-82
2022/12/03 09:07:30;;;;;;;28.35;17.63;;;;;;;5.21;89.29;98172.41;4201440;28;20300;-81
2022/12/03 09:09:33;;;;;;;32.30;17.80;;;;;;;5.19;89.90;98172.50;4199273;28;20260;-81
2022/12/03 09:11:37;;;;;;;31.83;18.13;;;;;;;5.18;90.36;98172.56;4199489;28;20236;-81
2022/12/03 09:13:40;;;;;;;31.92;17.25;;;;;;;5.18;90.13;98170.78;4187545;28;20203;-81
2022/12/03 09:15:43;;;;;;;29.55;15.90;;;;;;;5.20;90.71;98181.94;4199409;28;20738;-81
2022/12/03 09:17:47;;;;;;;31.38;17.45;;;;;;;5.21;90.48;98183.59;4202947;28;20229;-82
2022/12/03 09:19:50;;;;;;;30.55;16.20;;;;;;;5.21;90.80;98175.81;4198799;28;20240;-81
2022/12/03 09:21:54;;;;;;;31.75;17.80;;;;;;;5.26;90.28;98181.66;4201796;28;20643;-81
2022/12/03 09:23:57;;;;;;;28.42;17.02;;;;;;;5.25;90.36;98184.31;4192695;28;20213;-81
2022/12/03 09:26:00;;;;;;;29.05;16.15;;;;;;;5.21;90.20;98177.59;4203162;28;20267;-81
2022/12/03 09:28:03;;;;;;;30.65;16.10;;;;;;;5.16;90.12;98179.56;4189287;28;20210;-82
2022/12/03 09:30:07;;;;;;;28.58;15.77;;;;;;;5.11;89.97;98173.72;4198276;28;20269;-81
2022/12/03 09:32:10;;;;;;;29.75;15.85;;;;;;;5.13;90.55;98176.25;4200739;28;20241;-81
2022/12/03 09:34:21;;;;;;;33.25;16.60;;;;;;;5.12;90.21;98175.41;4200303;28;20204;-81
2022/12/03 09:36:24;;;;;;;31.60;16.98;;;;;;;5.13;90.29;98171.94;4179902;28;20268;-82
2022/12/03 09:38:27;;;;;;;31.95;17.45;;;;;;;5.15;90.18;98170.94;4197217;28;20255;-81
2022/12/03 09:40:30;;;;;;;29.95;17.88;;;;;;;5.17;90.17;98163.97;4202773;28;20594;-81
2022/12/03 09:42:34;;;;;;;26.45;15.35;;;;;;;5.22;90.44;98153.44;4199530;28;20207;-81
2022/12/03 09:44:38;;;;;;;28.42;16.33;;;;;;;5.17;89.89;98156.22;4190105;28;20252;-82
2022/12/03 09:46:41;;;;;;;30.40;16.77;;;;;;;5.14;89.81;98151.19;4208395;28;20232;-81
2022/12/03 09:48:45;;;;;;;32.88;17.83;;;;;;;5.14;89.79;98158.94;4181811;28;20716;-81
2022/12/03 09:50:49;;;;;;;31.80;18.08;;;;;;;5.09;89.87;98154.06;4187295;28;20684;-81
2022/12/03 09:52:54;;;;;;;33.00;17.40;;;;;;;5.05;90.17;98143.03;4203820;28;20211;-81
2022/12/03 09:54:58;;;;;;;36.90;17.25;;;;;;;5.07;89.91;98141.22;4199868;28;20328;-80
2022/12/03 09:57:04;;;;;;;32.60;17.75;;;;;;;5.09;90.83;98141.97;4197941;28;20216;-82